Time;durP1;ratioP1;P1;durP2;ratioP2;P2;SDS_P1;SDS_P2;PMS_P1;PMS_P2;Temp;Humidity;BMP_temperature;BMP_pressure;BME280_temperature;BME280_humidity;BME280_pressure;Samples;Min_cycle;Max_cycle;Signal;HPM_P1;HPM_P2
2022/08/20 00:01:14;;;;;;;18.00;16.10;;;;;;;22.48;68.96;100118.16;5084142;28;20490;-83
2022/08/20 00:03:41;;;;;;;22.20;15.47;;;;;;;22.45;69.22;100113.16;5099469;28;20450;-82
2022/08/20 00:06:12;;;;;;;17.67;15.87;;;;;;;22.31;70.06;100123.31;5101901;28;20503;-82
2022/08/20 00:08:39;;;;;;;21.43;15.30;;;;;;;22.31;70.21;100127.94;5101041;28;20447;-82
2022/08/20 00:11:07;;;;;;;24.13;18.70;;;;;;;22.18;70.84;100139.72;5100106;28;20475;-82
2022/08/20 00:13:37;;;;;;;22.07;19.13;;;;;;;22.17;71.18;100132.63;5081242;28;20956;-82
2022/08/20 00:16:05;;;;;;;19.00;16.63;;;;;;;22.32;70.55;100126.88;5082828;28;20479;-81
2022/08/20 00:18:32;;;;;;;18.73;16.63;;;;;;;22.31;70.41;100136.13;5101541;28;20423;-81
2022/08/20 00:20:59;;;;;;;19.00;16.90;;;;;;;22.34;69.75;100130.19;5096355;28;20498;-81
2022/08/20 00:23:28;;;;;;;16.20;14.50;;;;;;;22.28;69.71;100126.47;5070294;28;20444;-80
2022/08/20 00:25:55;;;;;;;17.60;14.37;;;;;;;22.42;69.39;100135.38;5098500;28;20532;-81
2022/08/20 00:28:22;;;;;;;16.80;13.50;;;;;;;22.44;69.08;100127.81;5099604;28;20481;-81
2022/08/20 00:30:49;;;;;;;17.13;15.23;;;;;;;22.43;69.34;100128.91;5100637;28;20493;-82
2022/08/20 00:33:18;;;;;;;17.73;15.93;;;;;;;22.38;69.17;100136.91;5090102;28;20472;-81
2022/08/20 00:35:50;;;;;;;16.53;14.83;;;;;;;22.29;69.42;100140.91;5081466;28;20471;-81
2022/08/20 00:38:17;;;;;;;17.13;15.37;;;;;;;22.35;69.43;100134.59;5083876;28;20477;-81
2022/08/20 00:40:48;;;;;;;16.07;14.10;;;;;;;22.29;69.55;100143.66;5085020;28;20476;-81
2022/08/20 00:43:29;;;;;;;20.50;15.80;;;;;;;22.29;69.66;100135.47;5082515;28;21014;-80
2022/08/20 00:45:57;;;;;;;21.07;15.87;;;;;;;22.30;69.65;100142.59;5101409;28;20481;-80
2022/08/20 00:48:26;;;;;;;20.77;14.87;;;;;;;22.21;70.26;100149.34;5088730;28;20432;-80
2022/08/20 00:50:54;;;;;;;17.50;14.60;;;;;;;22.22;70.23;100146.41;5084166;28;20968;-82
2022/08/20 00:53:21;;;;;;;20.10;15.33;;;;;;;22.13;70.49;100151.28;5083658;28;20505;-83
2022/08/20 00:55:50;;;;;;;21.10;15.60;;;;;;;22.19;70.36;100157.72;5083758;28;20485;-81
2022/08/20 00:58:17;;;;;;;20.07;15.57;;;;;;;22.21;70.38;100149.34;5085053;28;20538;-81
2022/08/20 01:00:45;;;;;;;16.83;15.07;;;;;;;22.12;70.46;100152.31;5094222;28;20462;-82
2022/08/20 01:03:14;;;;;;;17.87;14.13;;;;;;;22.15;70.41;100149.16;5095234;28;21253;-82
2022/08/20 01:05:44;;;;;;;15.90;13.50;;;;;;;22.19;70.12;100150.38;5101937;28;20532;-81
2022/08/20 01:08:10;;;;;;;20.43;14.33;;;;;;;22.04;70.83;100158.03;5105085;28;20443;-82
2022/08/20 01:10:39;;;;;;;18.27;15.30;;;;;;;22.13;70.57;100155.88;5082835;28;20539;-81
2022/08/20 01:13:09;;;;;;;17.03;14.27;;;;;;;22.05;70.91;100153.41;5101137;28;20486;-81
2022/08/20 01:15:37;;;;;;;17.00;14.07;;;;;;;21.96;71.31;100159.13;5087931;28;20533;-80
2022/08/20 01:18:04;;;;;;;18.00;14.10;;;;;;;21.96;71.46;100163.72;5078047;28;20447;-80
2022/08/20 01:20:34;;;;;;;17.33;14.40;;;;;;;21.93;71.70;100162.28;5103904;28;20458;-80
2022/08/20 01:25:56;;;;;;;14.97;13.47;;;;;;;21.95;71.65;100160.16;5104529;28;20477;-81
2022/08/20 01:28:25;;;;;;;18.27;15.53;;;;;;;21.83;72.19;100161.09;5100451;28;20451;-82
2022/08/20 01:30:52;;;;;;;18.23;14.77;;;;;;;21.84;72.53;100165.44;5096473;28;20547;-82
2022/08/20 01:33:19;;;;;;;18.73;15.10;;;;;;;21.87;72.12;100170.47;5085449;28;20460;-83
2022/08/20 01:35:46;;;;;;;17.70;13.93;;;;;;;21.89;72.21;100168.34;5084621;28;20476;-81
2022/08/20 01:38:13;;;;;;;21.13;14.90;;;;;;;21.85;72.61;100167.13;5083318;28;20440;-82
2022/08/20 01:41:08;;;;;;;19.37;14.93;;;;;;;21.78;72.82;100168.00;5086485;28;20470;-82
2022/08/20 01:43:35;;;;;;;19.00;14.70;;;;;;;21.82;72.64;100171.09;5102387;28;20464;-82
2022/08/20 01:46:02;;;;;;;18.27;13.93;;;;;;;21.87;72.59;100167.75;5089985;28;20555;-82
2022/08/20 01:48:33;;;;;;;18.17;15.03;;;;;;;21.94;72.21;100171.28;5085911;28;20444;-81
2022/08/20 01:51:05;;;;;;;17.63;15.10;;;;;;;22.02;71.89;100173.75;5102565;28;20991;-82
2022/08/20 01:53:36;;;;;;;15.93;12.33;;;;;;;22.12;71.66;100165.94;5102147;28;20535;-82
2022/08/20 01:56:05;;;;;;;15.60;13.97;;;;;;;22.17;71.20;100168.84;5103358;28;20554;-82
2022/08/20 01:58:35;;;;;;;13.50;12.20;;;;;;;22.22;70.98;100162.75;5085780;28;20908;-82
2022/08/20 02:01:02;;;;;;;19.57;15.57;;;;;;;22.07;71.93;100163.03;5081933;28;20507;-82
2022/08/20 02:03:28;;;;;;;17.10;15.30;;;;;;;21.95;72.74;100170.22;5084556;28;20447;-82
2022/08/20 02:05:55;;;;;;;17.50;13.83;;;;;;;22.06;71.87;100163.25;5089717;28;20476;-82
2022/08/20 02:08:22;;;;;;;16.60;14.07;;;;;;;22.02;72.40;100164.75;5084077;28;20431;-82
2022/08/20 02:10:49;;;;;;;19.83;14.97;;;;;;;21.95;72.72;100168.34;5097294;28;20912;-82
2022/08/20 02:13:16;;;;;;;18.80;14.03;;;;;;;22.01;72.35;100163.91;5100221;28;20487;-83
2022/08/20 02:15:44;;;;;;;16.07;13.63;;;;;;;22.08;71.71;100162.00;5089210;28;20488;-82
2022/08/20 02:18:12;;;;;;;20.93;15.93;;;;;;;22.11;71.52;100158.00;5092927;28;20443;-82
2022/08/20 02:20:40;;;;;;;16.80;14.60;;;;;;;22.11;71.41;100174.31;5097527;28;20895;-82
2022/08/20 02:23:08;;;;;;;19.00;14.07;;;;;;;22.01;71.93;100172.06;5083774;28;20466;-82
2022/08/20 02:25:36;;;;;;;21.17;14.30;;;;;;;22.03;71.80;100171.84;5097568;28;20495;-82
2022/08/20 02:28:06;;;;;;;17.47;15.60;;;;;;;21.94;71.98;100165.81;5086027;28;20452;-82
2022/08/20 02:30:35;;;;;;;19.67;14.83;;;;;;;21.99;71.79;100166.88;5082386;28;20496;-83
2022/08/20 02:33:08;;;;;;;17.53;14.47;;;;;;;22.07;71.47;100170.38;5063191;28;20464;-83
2022/08/20 02:35:35;;;;;;;20.40;14.80;;;;;;;21.96;71.75;100166.44;5081406;28;20498;-83
2022/08/20 02:38:02;;;;;;;15.67;13.90;;;;;;;21.88;72.10;100172.16;5082968;28;20436;-82
2022/08/20 02:40:30;;;;;;;18.63;16.63;;;;;;;21.77;72.80;100168.22;5082296;28;20472;-82
2022/08/20 02:42:57;;;;;;;16.90;14.30;;;;;;;21.79;72.51;100164.22;5082885;28;20486;-82
2022/08/20 02:45:24;;;;;;;21.73;17.50;;;;;;;21.60;72.92;100160.53;5082951;28;20501;-83
2022/08/20 02:47:52;;;;;;;18.97;16.47;;;;;;;21.75;72.77;100165.72;5085450;28;20952;-82
2022/08/20 02:50:22;;;;;;;19.03;17.03;;;;;;;21.86;72.11;100155.22;5100780;28;20498;-82
2022/08/20 02:52:49;;;;;;;22.37;19.10;;;;;;;21.68;72.92;100162.16;5096380;28;20474;-82
2022/08/20 02:55:16;;;;;;;23.00;20.27;;;;;;;21.63;73.07;100157.41;5101590;28;20513;-82
2022/08/20 02:57:43;;;;;;;27.03;23.20;;;;;;;21.54;73.58;100161.38;5084769;28;20444;-82
2022/08/20 03:00:13;;;;;;;24.80;21.17;;;;;;;21.63;73.39;100167.44;5097027;28;20447;-82
2022/08/20 03:02:39;;;;;;;21.90;19.60;;;;;;;21.74;73.14;100169.47;5083156;28;20469;-81
2022/08/20 03:05:07;;;;;;;25.27;19.63;;;;;;;21.78;73.20;100167.16;5087181;28;20553;-82
2022/08/20 03:07:42;;;;;;;27.40;22.83;;;;;;;21.80;73.13;100165.91;5078889;28;20448;-82
2022/08/20 03:10:10;;;;;;;24.20;20.53;;;;;;;21.60;73.53;100160.53;5073292;28;20462;-82
2022/08/20 03:12:37;;;;;;;25.23;20.40;;;;;;;21.54;74.16;100163.28;5082948;28;20440;-81
2022/08/20 03:15:05;;;;;;;28.50;24.20;;;;;;;21.42;74.23;100158.50;5084847;28;20467;-81
2022/08/20 03:17:32;;;;;;;29.93;23.50;;;;;;;21.47;74.50;100174.19;5083339;28;20457;-81
2022/08/20 03:19:58;;;;;;;27.23;22.43;;;;;;;21.55;74.07;100170.41;5095743;28;20471;-81
2022/08/20 03:22:25;;;;;;;32.03;24.50;;;;;;;21.44;74.52;100167.28;5088241;28;20496;-84
2022/08/20 03:24:53;;;;;;;28.17;24.50;;;;;;;21.56;74.50;100167.47;5097806;28;20441;-83
2022/08/20 03:27:20;;;;;;;30.13;24.07;;;;;;;21.55;74.40;100165.78;5082931;28;20479;-83
2022/08/20 03:29:47;;;;;;;33.10;25.67;;;;;;;21.39;75.30;100164.34;5087695;28;20460;-82
2022/08/20 03:32:13;;;;;;;31.90;25.67;;;;;;;21.39;75.47;100164.34;5088800;28;20502;-82
2022/08/20 03:34:40;;;;;;;31.90;24.77;;;;;;;21.26;76.19;100169.81;5098455;28;21037;-82
2022/08/20 03:37:07;;;;;;;27.33;23.70;;;;;;;21.31;75.84;100170.00;5083282;28;20992;-83
2022/08/20 03:39:34;;;;;;;27.03;22.60;;;;;;;21.39;75.90;100175.22;5083689;28;20816;-83
2022/08/20 03:42:02;;;;;;;31.00;23.90;;;;;;;21.37;76.47;100181.91;5099002;28;20562;-83
2022/08/20 03:44:28;;;;;;;27.17;23.63;;;;;;;21.29;77.20;100177.56;5093646;28;20484;-82
2022/08/20 03:46:55;;;;;;;29.97;25.60;;;;;;;21.12;78.43;100182.59;5086035;28;20485;-83
2022/08/20 03:49:22;;;;;;;29.80;24.93;;;;;;;21.16;78.68;100194.75;5094971;28;20483;-83
2022/08/20 03:51:49;;;;;;;29.00;25.60;;;;;;;21.13;79.35;100187.00;5081686;28;20489;-83
2022/08/20 03:54:16;;;;;;;32.97;27.77;;;;;;;20.96;80.48;100192.03;5088506;28;20487;-83
2022/08/20 03:56:42;;;;;;;34.73;26.53;;;;;;;20.92;81.31;100192.66;5099627;28;20483;-84
2022/08/20 03:59:10;;;;;;;31.67;26.87;;;;;;;21.00;80.94;100185.13;5081269;28;20467;-84
2022/08/20 04:01:37;;;;;;;41.30;29.53;;;;;;;20.90;81.92;100189.31;5081951;28;20468;-84
2022/08/20 04:04:04;;;;;;;35.50;26.57;;;;;;;20.99;81.60;100190.78;5102008;28;20439;-83
2022/08/20 04:06:31;;;;;;;30.57;25.37;;;;;;;21.11;81.04;100194.53;5101604;28;20581;-83
2022/08/20 04:08:58;;;;;;;33.57;25.83;;;;;;;21.16;81.35;100185.72;5099693;28;20447;-83
2022/08/20 04:11:25;;;;;;;32.20;27.70;;;;;;;21.18;80.89;100183.63;5095834;28;20479;-82
2022/08/20 04:13:51;;;;;;;37.93;29.67;;;;;;;21.13;81.52;100181.56;5093043;28;21049;-81
2022/08/20 04:16:19;;;;;;;32.97;27.63;;;;;;;21.16;81.50;100183.00;5081128;28;20486;-82
2022/08/20 04:18:47;;;;;;;38.90;30.43;;;;;;;21.08;82.11;100194.97;5096042;28;20435;-82
2022/08/20 04:21:14;;;;;;;36.23;30.70;;;;;;;21.01;82.49;100197.69;5101367;28;20477;-82
2022/08/20 04:23:41;;;;;;;35.70;29.30;;;;;;;21.05;82.74;100206.25;5097459;28;20447;-81
2022/08/20 04:26:08;;;;;;;39.33;30.17;;;;;;;20.99;82.68;100199.78;5082014;28;20479;-82
2022/08/20 04:28:35;;;;;;;41.20;29.30;;;;;;;21.00;83.04;100192.44;5083519;28;20530;-81
2022/08/20 04:31:02;;;;;;;37.20;29.60;;;;;;;20.93;83.63;100206.03;5079751;28;20475;-82
2022/08/20 04:33:30;;;;;;;34.83;28.90;;;;;;;21.01;83.63;100208.56;5091026;28;20527;-82
2022/08/20 04:35:59;;;;;;;39.60;32.07;;;;;;;21.03;83.47;100214.59;5085191;28;20525;-82
2022/08/20 04:38:27;;;;;;;38.73;31.30;;;;;;;21.01;83.77;100215.88;5085655;28;20454;-82
2022/08/20 04:40:53;;;;;;;38.93;29.90;;;;;;;21.03;83.61;100220.03;5084768;28;20494;-82
2022/08/20 04:43:21;;;;;;;39.93;31.13;;;;;;;21.04;84.03;100219.00;5085148;28;20821;-82
2022/08/20 04:45:48;;;;;;;31.63;26.80;;;;;;;21.08;84.07;100224.03;5084792;28;20221;-81
2022/08/20 04:48:15;;;;;;;44.27;31.90;;;;;;;20.90;84.50;100217.34;5080833;28;20480;-82
2022/08/20 04:50:46;;;;;;;43.20;33.93;;;;;;;20.81;85.11;100219.41;5078877;28;20463;-82
2022/08/20 04:53:15;;;;;;;45.10;34.30;;;;;;;20.72;86.32;100220.66;5085905;28;20475;-81
2022/08/20 04:55:44;;;;;;;41.33;33.13;;;;;;;20.98;84.91;100224.44;5071089;28;20530;-83
2022/08/20 04:58:13;;;;;;;38.60;31.53;;;;;;;20.97;84.48;100229.06;5083412;28;20460;-81
2022/08/20 05:00:45;;;;;;;42.10;34.63;;;;;;;20.92;85.10;100228.84;5074485;28;20471;-81
2022/08/20 05:03:12;;;;;;;45.83;35.60;;;;;;;20.97;85.46;100230.91;5086207;28;20467;-83
2022/08/20 05:05:39;;;;;;;35.80;28.03;;;;;;;21.06;84.31;100235.13;5080076;28;20482;-82
2022/08/20 05:08:07;;;;;;;36.07;29.03;;;;;;;21.07;83.72;100225.88;5069611;28;20456;-82
2022/08/20 05:10:37;;;;;;;42.30;32.80;;;;;;;21.13;84.19;100232.41;5078631;28;20476;-82
2022/08/20 05:13:04;;;;;;;38.50;32.60;;;;;;;21.14;83.95;100229.44;5077608;28;20460;-82
2022/08/20 05:15:31;;;;;;;46.17;33.60;;;;;;;21.02;85.02;100226.53;5079369;28;20463;-82
2022/08/20 05:18:01;;;;;;;43.70;32.53;;;;;;;20.92;85.98;100226.13;5080235;28;20455;-82
2022/08/20 05:20:30;;;;;;;42.60;31.33;;;;;;;21.02;85.46;100237.41;5083397;28;21060;-83
2022/08/20 05:22:58;;;;;;;45.90;34.43;;;;;;;20.99;85.36;100237.00;5077921;28;20467;-82
2022/08/20 05:25:29;;;;;;;43.77;33.63;;;;;;;21.06;85.44;100244.09;5092469;28;20458;-81
2022/08/20 05:27:59;;;;;;;35.90;30.27;;;;;;;21.14;84.60;100244.91;5086011;28;20468;-82
2022/08/20 05:30:27;;;;;;;43.10;34.33;;;;;;;21.17;84.39;100247.22;5095413;28;20481;-81
2022/08/20 05:32:54;;;;;;;36.50;29.43;;;;;;;21.20;84.08;100247.63;5085973;28;20444;-82
2022/08/20 05:35:21;;;;;;;37.50;30.30;;;;;;;21.33;83.69;100248.66;5084027;28;20558;-83
2022/08/20 05:37:48;;;;;;;38.27;32.30;;;;;;;21.28;84.37;100251.19;5084819;28;20462;-83
2022/08/20 05:40:15;;;;;;;34.67;27.83;;;;;;;21.27;84.31;100247.63;5083939;28;20488;-80
2022/08/20 05:42:43;;;;;;;36.63;29.40;;;;;;;21.45;83.25;100252.41;5084301;28;20432;-80
2022/08/20 05:45:10;;;;;;;38.00;29.57;;;;;;;21.50;83.35;100249.91;5084933;28;20458;-80
2022/08/20 05:47:39;;;;;;;34.50;30.13;;;;;;;21.55;82.29;100244.69;5097866;28;20447;-79
2022/08/20 05:50:07;;;;;;;40.03;30.93;;;;;;;21.40;82.93;100252.22;5101443;28;20467;-81
2022/08/20 05:52:34;;;;;;;33.57;27.90;;;;;;;21.38;84.24;100252.41;5087631;28;20460;-79
2022/08/20 05:55:04;;;;;;;32.90;29.33;;;;;;;21.56;83.40;100251.81;5080089;28;20494;-79
2022/08/20 05:57:31;;;;;;;41.00;34.50;;;;;;;21.19;85.41;100262.28;5085320;28;20498;-81
2022/08/20 06:00:01;;;;;;;40.97;33.77;;;;;;;21.14;86.47;100258.50;5101657;28;20471;-81
2022/08/20 06:05:12;;;;;;;38.20;31.60;;;;;;;21.23;85.43;100258.09;5103373;28;20523;-80
2022/08/20 06:07:39;;;;;;;37.00;31.90;;;;;;;21.30;85.35;100259.97;5086441;28;20488;-81
2022/08/20 06:10:07;;;;;;;41.03;31.80;;;;;;;21.24;86.02;100258.94;5093815;28;20530;-82
2022/08/20 06:12:34;;;;;;;36.60;30.57;;;;;;;21.27;85.68;100258.50;5094188;28;20522;-81
2022/08/20 06:15:02;;;;;;;36.77;31.97;;;;;;;21.31;85.61;100254.31;5083021;28;20487;-79
2022/08/20 06:17:32;;;;;;;40.30;32.30;;;;;;;21.25;85.31;100247.03;5082216;28;20515;-82
2022/08/20 06:20:01;;;;;;;37.93;31.87;;;;;;;21.37;85.37;100250.75;5066255;28;20445;-83
2022/08/20 06:22:28;;;;;;;40.50;32.03;;;;;;;21.49;85.33;100252.84;5072741;28;20482;-81
2022/08/20 06:24:55;;;;;;;35.13;31.13;;;;;;;21.71;84.15;100256.16;5083265;28;20454;-81
2022/08/20 06:27:22;;;;;;;39.30;31.90;;;;;;;21.82;83.56;100258.19;5097683;28;20547;-82
2022/08/20 06:29:50;;;;;;;34.83;31.03;;;;;;;21.94;82.58;100258.38;5088544;28;20827;-81
2022/08/20 06:32:18;;;;;;;32.40;28.83;;;;;;;21.98;82.33;100257.75;5084632;28;20484;-81
2022/08/20 06:34:45;;;;;;;32.87;28.50;;;;;;;21.96;82.59;100253.53;5083298;28;20475;-82
2022/08/20 06:37:16;;;;;;;32.47;28.60;;;;;;;21.98;81.27;100249.56;5082293;28;20483;-82
2022/08/20 06:39:43;;;;;;;37.97;31.30;;;;;;;21.58;84.26;100257.88;5094457;28;20474;-82
2022/08/20 06:42:10;;;;;;;33.13;29.50;;;;;;;21.84;83.28;100255.25;5102315;28;20483;-84
2022/08/20 06:44:37;;;;;;;33.07;29.53;;;;;;;21.99;82.34;100255.84;5098064;28;20464;-83
2022/08/20 06:47:05;;;;;;;32.87;27.97;;;;;;;21.49;82.30;100259.16;5091367;28;20468;-85
2022/08/20 06:49:34;;;;;;;33.23;27.87;;;;;;;21.73;82.47;100252.16;5084515;28;20451;-85
2022/08/20 06:52:01;;;;;;;32.73;26.87;;;;;;;21.70;82.25;100255.31;5082701;28;20483;-85
2022/08/20 06:54:27;;;;;;;31.37;26.37;;;;;;;21.69;82.75;100258.25;5082096;28;20511;-85
2022/08/20 06:56:54;;;;;;;34.47;28.80;;;;;;;21.53;83.93;100252.22;5062350;28;20481;-86
2022/08/20 06:59:21;;;;;;;30.53;26.03;;;;;;;21.51;84.07;100267.94;5067174;28;20576;-87
2022/08/20 07:01:48;;;;;;;28.50;25.40;;;;;;;21.50;83.81;100266.25;5090010;28;20483;-87
2022/08/20 07:04:15;;;;;;;29.47;25.90;;;;;;;21.48;83.99;100265.63;5091384;28;20523;-86
2022/08/20 07:06:43;;;;;;;29.20;25.13;;;;;;;21.52;83.50;100269.59;5096054;28;20564;-81
2022/08/20 07:09:10;;;;;;;27.43;24.13;;;;;;;21.63;83.63;100268.13;5087407;28;20436;-81
2022/08/20 07:11:37;;;;;;;26.53;22.23;;;;;;;21.70;82.67;100265.34;5090217;28;20510;-80
2022/08/20 07:14:04;;;;;;;24.00;21.10;;;;;;;21.86;81.97;100264.91;5083810;28;21021;-80
2022/08/20 07:16:31;;;;;;;22.20;19.33;;;;;;;22.09;80.33;100277.19;5062318;28;20886;-80
2022/08/20 07:18:58;;;;;;;21.37;19.27;;;;;;;22.33;79.41;100272.91;5072146;28;20447;-80
2022/08/20 07:21:24;;;;;;;21.30;18.50;;;;;;;22.83;76.83;100270.28;5100577;28;20582;-81
2022/08/20 07:23:52;;;;;;;19.53;17.47;;;;;;;24.31;70.63;100261.47;5102718;28;20431;-80
2022/08/20 07:26:19;;;;;;;15.37;13.77;;;;;;;26.18;63.13;100277.47;5092927;28;20526;-80
2022/08/20 07:28:46;;;;;;;14.50;10.87;;;;;;;27.33;58.64;100282.88;5103036;28;20443;-80
2022/08/20 07:33:57;;;;;;;9.13;8.30;;;;;;;25.10;62.05;100277.75;5103222;28;20546;-80
2022/08/20 07:36:24;;;;;;;10.70;9.60;;;;;;;25.28;63.03;100274.97;5099271;28;20487;-81
2022/08/20 07:38:53;;;;;;;8.00;7.30;;;;;;;25.69;62.69;100280.53;5082950;28;20447;-80
2022/08/20 07:41:20;;;;;;;9.70;8.80;;;;;;;25.56;62.61;100276.13;5082008;28;20574;-80
2022/08/20 07:43:47;;;;;;;10.37;9.47;;;;;;;24.89;65.28;100282.72;5084925;28;20594;-81
2022/08/20 07:46:16;;;;;;;9.40;8.60;;;;;;;24.71;66.24;100280.06;5083680;28;20812;-81
2022/08/20 07:48:45;;;;;;;9.73;8.83;;;;;;;24.30;67.05;100290.69;5086155;28;20441;-80
2022/08/20 07:51:13;;;;;;;10.07;9.17;;;;;;;23.97;68.76;100285.63;5088869;28;20936;-81
2022/08/20 07:53:41;;;;;;;10.17;9.27;;;;;;;24.07;68.95;100288.66;5096530;28;20533;-81
2022/08/20 07:56:11;;;;;;;10.37;9.30;;;;;;;23.96;68.33;100289.44;5084703;28;20522;-80
2022/08/20 07:58:39;;;;;;;9.30;8.40;;;;;;;25.05;66.18;100291.31;5081134;28;20984;-79
2022/08/20 08:01:06;;;;;;;9.17;8.30;;;;;;;26.97;57.43;100298.72;5085897;28;20482;-81
2022/08/20 08:03:34;;;;;;;7.00;6.30;;;;;;;27.13;56.39;100291.56;5086385;28;20432;-81
2022/08/20 08:06:00;;;;;;;6.07;5.57;;;;;;;28.64;51.60;100289.50;5087241;28;21081;-81
2022/08/20 08:08:28;;;;;;;8.70;4.90;;;;;;;31.02;46.16;100293.31;5100801;28;20434;-83
2022/08/20 08:10:58;;;;;;;6.47;5.87;;;;;;;31.10;45.37;100290.00;5084229;28;20524;-83
2022/08/20 08:13:26;;;;;;;5.73;5.23;;;;;;;30.70;45.08;100282.50;5081786;28;20499;-82
2022/08/20 08:15:56;;;;;;;5.80;5.30;;;;;;;32.10;41.15;100287.63;5084106;28;20506;-83
2022/08/20 08:18:29;;;;;;;5.40;5.00;;;;;;;32.87;40.79;100289.94;5085839;28;20486;-82
2022/08/20 08:20:56;;;;;;;6.80;6.30;;;;;;;30.07;46.44;100288.09;5088062;28;21043;-82
2022/08/20 08:23:24;;;;;;;5.83;5.27;;;;;;;30.10;46.44;100296.63;5105773;28;20444;-83
2022/08/20 08:25:51;;;;;;;6.17;5.57;;;;;;;28.35;50.67;100299.91;5089031;28;20500;-82
2022/08/20 08:28:18;;;;;;;5.50;5.00;;;;;;;26.77;55.01;100310.13;5084261;28;20468;-81
2022/08/20 08:30:47;;;;;;;5.63;5.13;;;;;;;26.21;57.75;100305.22;5085964;28;20465;-83
2022/08/20 08:33:29;;;;;;;6.73;6.13;;;;;;;25.75;59.53;100301.47;5087089;28;20458;-81
2022/08/20 08:35:57;;;;;;;9.13;6.67;;;;;;;25.49;61.00;100300.91;5090107;28;20503;-80
2022/08/20 08:38:25;;;;;;;7.60;6.80;;;;;;;25.35;62.48;100302.22;5085275;28;20757;-79
2022/08/20 08:40:53;;;;;;;7.90;7.20;;;;;;;25.42;62.05;100302.09;5094802;28;20478;-80
2022/08/20 08:43:21;;;;;;;8.17;7.37;;;;;;;25.29;61.73;100305.88;5084411;28;20539;-82
2022/08/20 08:46:00;;;;;;;8.00;7.30;;;;;;;25.27;62.49;100305.28;5102749;28;20462;-81
2022/08/20 08:48:32;;;;;;;7.87;7.07;;;;;;;26.03;60.02;100305.41;5097677;28;20436;-81
2022/08/20 08:50:59;;;;;;;6.50;5.87;;;;;;;26.45;58.84;100311.44;5103509;28;20481;-82
2022/08/20 08:53:28;;;;;;;6.87;6.27;;;;;;;26.20;58.80;100309.03;5092963;28;20444;-82
2022/08/20 08:55:55;;;;;;;8.80;6.10;;;;;;;24.89;62.04;100318.25;5087251;28;20483;-81
2022/08/20 08:58:22;;;;;;;6.47;5.80;;;;;;;24.79;63.84;100326.22;5092684;28;20451;-81
2022/08/20 09:00:50;;;;;;;7.40;6.70;;;;;;;24.19;66.05;100322.34;5084281;28;21048;-81
2022/08/20 09:03:23;;;;;;;7.67;6.77;;;;;;;24.58;66.09;100330.28;5087837;28;20443;-82
2022/08/20 09:05:53;;;;;;;7.80;7.00;;;;;;;24.80;66.40;100327.88;5084784;28;20549;-80
2022/08/20 09:08:26;;;;;;;5.80;5.30;;;;;;;24.81;64.40;100335.03;5096124;28;20471;-82
2022/08/20 09:10:53;;;;;;;6.27;5.67;;;;;;;24.89;64.69;100336.56;5083418;28;20587;-82
2022/08/20 09:13:19;;;;;;;6.47;5.87;;;;;;;24.81;65.24;100333.09;5084637;28;20493;-81
2022/08/20 09:15:46;;;;;;;6.53;5.73;;;;;;;25.28;63.56;100337.88;5083697;28;20467;-81
2022/08/20 09:18:14;;;;;;;6.90;6.30;;;;;;;25.01;64.35;100331.97;5092370;28;20440;-80
2022/08/20 09:20:41;;;;;;;8.37;7.57;;;;;;;25.25;62.59;100340.25;5082827;28;20999;-81
2022/08/20 09:23:07;;;;;;;7.63;6.93;;;;;;;25.82;61.27;100332.31;5085421;28;20489;-81
2022/08/20 09:25:34;;;;;;;8.93;8.03;;;;;;;26.13;59.85;100335.75;5103630;28;20467;-81
2022/08/20 09:28:03;;;;;;;10.97;8.83;;;;;;;25.51;61.10;100328.03;5091642;28;20447;-80
2022/08/20 09:30:30;;;;;;;7.93;7.20;;;;;;;26.70;59.86;100337.75;5085280;28;20464;-80
2022/08/20 09:32:59;;;;;;;9.63;8.67;;;;;;;27.09;56.46;100334.31;5084417;28;20444;-81
2022/08/20 09:35:27;;;;;;;8.50;7.80;;;;;;;30.04;47.81;100333.56;5083972;28;20543;-81
2022/08/20 09:37:54;;;;;;;9.20;8.30;;;;;;;29.66;48.96;100339.09;5084306;28;20436;-81
2022/08/20 09:40:21;;;;;;;7.73;6.93;;;;;;;30.61;46.38;100320.84;5083534;28;20465;-80
2022/08/20 09:42:48;;;;;;;7.40;6.70;;;;;;;31.24;44.36;100330.88;5094383;28;20440;-81
2022/08/20 09:45:15;;;;;;;6.90;6.30;;;;;;;31.67;41.43;100335.00;5096191;28;20475;-81
2022/08/20 09:47:42;;;;;;;6.20;5.60;;;;;;;31.24;42.87;100330.88;5082010;28;20450;-81
2022/08/20 09:50:09;;;;;;;6.67;6.07;;;;;;;30.34;43.37;100326.53;5069966;28;20441;-80
2022/08/20 09:52:43;;;;;;;6.27;5.50;;;;;;;29.38;46.69;100322.94;5070175;28;20449;-81
2022/08/20 09:55:18;;;;;;;6.47;5.80;;;;;;;30.21;43.85;100325.94;5086326;28;20480;-78
2022/08/20 09:57:46;;;;;;;5.80;5.23;;;;;;;29.50;47.19;100320.00;5097608;28;20474;-80
2022/08/20 10:00:13;;;;;;;6.00;4.33;;;;;;;28.01;49.69;100329.47;5083326;28;20453;-79
2022/08/20 10:02:40;;;;;;;5.27;4.40;;;;;;;26.28;54.55;100319.63;5086833;28;20469;-80
2022/08/20 10:05:08;;;;;;;6.10;5.50;;;;;;;25.49;56.93;100317.31;5104594;28;20454;-79
2022/08/20 10:07:35;;;;;;;7.30;5.87;;;;;;;24.52;60.53;100328.44;5103166;28;20442;-80
2022/08/20 10:10:04;;;;;;;6.70;5.20;;;;;;;24.55;61.43;100328.03;5104604;28;20439;-79
2022/08/20 10:12:31;;;;;;;8.07;5.70;;;;;;;24.72;60.66;100341.88;5102890;28;20491;-80
2022/08/20 10:14:58;;;;;;;5.90;5.30;;;;;;;24.44;61.35;100346.00;5086585;28;20482;-80
2022/08/20 10:17:25;;;;;;;8.70;6.50;;;;;;;23.57;63.57;100352.38;5098525;28;20491;-80
2022/08/20 10:19:51;;;;;;;7.93;7.23;;;;;;;23.62;64.93;100338.88;5086716;28;20471;-81
2022/08/20 10:22:18;;;;;;;7.40;6.70;;;;;;;23.13;65.94;100346.03;5082930;28;20493;-80
2022/08/20 10:24:44;;;;;;;8.13;7.30;;;;;;;23.85;64.34;100345.63;5101748;28;20443;-80
2022/08/20 10:27:12;;;;;;;10.20;7.00;;;;;;;23.72;63.18;100346.56;5102080;28;20502;-76
2022/08/20 10:29:39;;;;;;;7.97;7.17;;;;;;;24.42;62.71;100335.28;5104460;28;20477;-80
2022/08/20 10:32:10;;;;;;;11.67;8.53;;;;;;;24.88;60.99;100334.94;5098189;28;20476;-81
2022/08/20 10:34:37;;;;;;;7.97;7.20;;;;;;;24.91;60.58;100331.69;5087958;28;20452;-82
2022/08/20 10:37:07;;;;;;;7.37;6.77;;;;;;;24.60;61.57;100336.38;5083779;28;20472;-82
2022/08/20 10:39:34;;;;;;;9.97;9.07;;;;;;;24.05;62.74;100331.75;5083559;28;20435;-81
2022/08/20 10:42:00;;;;;;;12.07;9.90;;;;;;;24.75;61.51;100328.56;5090564;28;20511;-81
2022/08/20 10:44:28;;;;;;;8.60;7.60;;;;;;;25.46;60.20;100334.22;5089213;28;20448;-82
2022/08/20 10:46:55;;;;;;;8.27;7.57;;;;;;;25.52;57.89;100336.00;5088517;28;20503;-82
2022/08/20 10:49:22;;;;;;;11.07;9.13;;;;;;;23.95;62.96;100335.00;5083754;28;20460;-82
2022/08/20 10:51:48;;;;;;;9.77;8.87;;;;;;;24.49;61.83;100328.91;5083071;28;20476;-81
2022/08/20 10:54:15;;;;;;;7.90;7.20;;;;;;;24.61;62.62;100335.28;5082565;28;20484;-82
2022/08/20 10:56:42;;;;;;;10.07;9.10;;;;;;;24.59;60.95;100330.06;5082534;28;20475;-81
2022/08/20 10:59:09;;;;;;;8.80;8.00;;;;;;;25.10;60.81;100337.94;5082898;28;20447;-82
2022/08/20 11:01:37;;;;;;;8.90;7.90;;;;;;;24.86;61.16;100337.03;5082400;28;20498;-82
2022/08/20 11:04:04;;;;;;;8.63;7.60;;;;;;;24.37;61.90;100339.78;5082832;28;20843;-81
2022/08/20 11:06:30;;;;;;;8.03;7.23;;;;;;;24.23;63.43;100339.09;5082211;28;20476;-82
2022/08/20 11:08:57;;;;;;;8.53;7.77;;;;;;;24.38;62.88;100345.00;5082835;28;20432;-81
2022/08/20 11:11:24;;;;;;;8.70;7.60;;;;;;;24.48;63.02;100339.00;5081353;28;20487;-81
2022/08/20 11:13:50;;;;;;;8.57;7.70;;;;;;;24.21;63.73;100342.06;5062684;28;20453;-81
2022/08/20 11:16:17;;;;;;;8.17;6.90;;;;;;;26.47;57.57;100338.63;5062332;28;20504;-82
2022/08/20 11:18:45;;;;;;;6.27;5.67;;;;;;;28.12;50.63;100340.34;5062679;28;20433;-82
2022/08/20 11:21:12;;;;;;;5.80;5.27;;;;;;;28.50;48.36;100344.06;5062143;28;20465;-81
2022/08/20 11:23:38;;;;;;;5.20;4.70;;;;;;;28.62;48.33;100337.63;5075568;28;20436;-81
2022/08/20 11:26:05;;;;;;;5.30;4.73;;;;;;;28.60;48.12;100337.06;5076242;28;20826;-80